Arborg, Canada
Current Conditions -  °F | °C
As of 11:00 PM on Monday 20 Oct 2014 (Local Time) from CYWG Reporting Station
Clear Clear  
Wind Chill: 36°   Ceiling: Unl
Heat Index: 43°   Visibility: 15mi
Dew Point: 37°   Wind: 13mph
Humidity: 81%   Direction: 140°SE
Pressure: 30.04"   Gusts: NA
Location:  50.91°N, 97.22°W
Report Text: CYWG 210400Z 14011KT 15SM SKC 06/03 A3004 RMK SLP181
Loading
Personal Weather Stations






























Interactive Weather Map
Tropical Storm Tracking
New forecast layout! Learn more

10-Day Weather Forecast

Advertisements
Track Severe Weather on mobile